sensor_id;sensor_type;location;lat;lon;timestamp;temperature;humidity
20398;DHT22;10358;49.590;11.030;2023-07-13T00:01:13;22.60;78.50
20398;DHT22;10358;49.590;11.030;2023-07-13T00:03:38;22.60;78.50
20398;DHT22;10358;49.590;11.030;2023-07-13T00:06:06;22.60;78.50
20398;DHT22;10358;49.590;11.030;2023-07-13T00:08:33;22.50;78.50
20398;DHT22;10358;49.590;11.030;2023-07-13T00:11:00;22.50;78.70
20398;DHT22;10358;49.590;11.030;2023-07-13T00:13:27;22.50;78.70
20398;DHT22;10358;49.590;11.030;2023-07-13T00:15:52;22.40;78.80
20398;DHT22;10358;49.590;11.030;2023-07-13T00:18:19;22.40;78.90
20398;DHT22;10358;49.590;11.030;2023-07-13T00:20:45;22.40;79.00
20398;DHT22;10358;49.590;11.030;2023-07-13T00:23:11;22.30;79.20
20398;DHT22;10358;49.590;11.030;2023-07-13T00:25:37;22.30;79.50
20398;DHT22;10358;49.590;11.030;2023-07-13T00:28:03;22.20;79.60
20398;DHT22;10358;49.590;11.030;2023-07-13T00:30:28;22.20;79.80
20398;DHT22;10358;49.590;11.030;2023-07-13T00:32:54;22.10;80.00
20398;DHT22;10358;49.590;11.030;2023-07-13T00:35:19;22.10;80.30
20398;DHT22;10358;49.590;11.030;2023-07-13T00:37:45;22.00;80.50
20398;DHT22;10358;49.590;11.030;2023-07-13T00:40:13;22.00;80.90
20398;DHT22;10358;49.590;11.030;2023-07-13T00:42:39;21.90;81.00
20398;DHT22;10358;49.590;11.030;2023-07-13T00:47:54;21.80;81.40
20398;DHT22;10358;49.590;11.030;2023-07-13T00:50:21;21.80;81.50
20398;DHT22;10358;49.590;11.030;2023-07-13T00:52:50;21.70;81.80
20398;DHT22;10358;49.590;11.030;2023-07-13T00:55:17;21.60;82.00
20398;DHT22;10358;49.590;11.030;2023-07-13T00:57:44;21.70;82.90
20398;DHT22;10358;49.590;11.030;2023-07-13T01:00:10;21.60;82.40
20398;DHT22;10358;49.590;11.030;2023-07-13T01:02:39;21.60;82.50
20398;DHT22;10358;49.590;11.030;2023-07-13T01:05:17;21.60;82.80
20398;DHT22;10358;49.590;11.030;2023-07-13T01:07:43;21.50;82.80
20398;DHT22;10358;49.590;11.030;2023-07-13T01:10:14;21.40;83.00
20398;DHT22;10358;49.590;11.030;2023-07-13T01:12:40;21.30;83.30
20398;DHT22;10358;49.590;11.030;2023-07-13T01:15:32;21.30;83.40
20398;DHT22;10358;49.590;11.030;2023-07-13T01:17:52;21.30;83.50
20398;DHT22;10358;49.590;11.030;2023-07-13T01:20:17;21.30;83.50
20398;DHT22;10358;49.590;11.030;2023-07-13T01:22:43;21.30;83.60
20398;DHT22;10358;49.590;11.030;2023-07-13T01:25:09;21.20;83.80
20398;DHT22;10358;49.590;11.030;2023-07-13T01:27:34;21.20;84.20
20398;DHT22;10358;49.590;11.030;2023-07-13T01:30:01;21.10;84.30
20398;DHT22;10358;49.590;11.030;2023-07-13T01:32:29;21.10;84.50
20398;DHT22;10358;49.590;11.030;2023-07-13T01:34:56;21.10;84.80
20398;DHT22;10358;49.590;11.030;2023-07-13T01:37:26;21.10;85.10
20398;DHT22;10358;49.590;11.030;2023-07-13T01:39:52;21.10;85.30
20398;DHT22;10358;49.590;11.030;2023-07-13T01:42:18;21.00;85.30
20398;DHT22;10358;49.590;11.030;2023-07-13T01:44:43;20.90;85.50
20398;DHT22;10358;49.590;11.030;2023-07-13T01:47:10;20.90;85.60
20398;DHT22;10358;49.590;11.030;2023-07-13T01:49:35;20.80;85.50
20398;DHT22;10358;49.590;11.030;2023-07-13T01:52:01;20.80;85.90
20398;DHT22;10358;49.590;11.030;2023-07-13T01:54:26;20.70;86.20
20398;DHT22;10358;49.590;11.030;2023-07-13T01:56:52;20.80;86.30
20398;DHT22;10358;49.590;11.030;2023-07-13T01:59:17;20.70;86.50
20398;DHT22;10358;49.590;11.030;2023-07-13T02:01:43;20.60;86.60
20398;DHT22;10358;49.590;11.030;2023-07-13T02:04:08;20.50;87.10
20398;DHT22;10358;49.590;11.030;2023-07-13T02:06:34;20.40;87.30
20398;DHT22;10358;49.590;11.030;2023-07-13T02:08:59;20.40;88.00
20398;DHT22;10358;49.590;11.030;2023-07-13T02:11:25;20.40;88.00
20398;DHT22;10358;49.590;11.030;2023-07-13T02:13:58;20.30;88.30
20398;DHT22;10358;49.590;11.030;2023-07-13T02:16:24;20.20;88.70
20398;DHT22;10358;49.590;11.030;2023-07-13T02:18:49;20.20;89.00
20398;DHT22;10358;49.590;11.030;2023-07-13T02:21:17;20.20;89.00
20398;DHT22;10358;49.590;11.030;2023-07-13T02:23:43;20.20;89.10
20398;DHT22;10358;49.590;11.030;2023-07-13T02:26:09;20.20;89.40
20398;DHT22;10358;49.590;11.030;2023-07-13T02:28:35;20.10;89.60
20398;DHT22;10358;49.590;11.030;2023-07-13T02:31:09;20.10;89.80
20398;DHT22;10358;49.590;11.030;2023-07-13T02:33:34;20.00;90.00
20398;DHT22;10358;49.590;11.030;2023-07-13T02:36:00;20.00;90.00
20398;DHT22;10358;49.590;11.030;2023-07-13T02:38:25;20.00;90.20
20398;DHT22;10358;49.590;11.030;2023-07-13T02:40:51;20.00;90.30
20398;DHT22;10358;49.590;11.030;2023-07-13T02:43:17;19.90;90.50
20398;DHT22;10358;49.590;11.030;2023-07-13T02:45:46;19.90;90.60
20398;DHT22;10358;49.590;11.030;2023-07-13T02:48:13;19.90;90.60
20398;DHT22;10358;49.590;11.030;2023-07-13T02:50:39;19.90;90.70
20398;DHT22;10358;49.590;11.030;2023-07-13T02:53:05;19.80;90.90
20398;DHT22;10358;49.590;11.030;2023-07-13T02:55:30;19.80;91.00
20398;DHT22;10358;49.590;11.030;2023-07-13T02:57:56;19.70;91.10
20398;DHT22;10358;49.590;11.030;2023-07-13T03:00:22;19.70;91.30
20398;DHT22;10358;49.590;11.030;2023-07-13T03:02:48;19.60;91.40
20398;DHT22;10358;49.590;11.030;2023-07-13T03:05:14;19.60;91.60
20398;DHT22;10358;49.590;11.030;2023-07-13T03:07:40;19.60;91.70
20398;DHT22;10358;49.590;11.030;2023-07-13T03:10:06;19.50;91.80
20398;DHT22;10358;49.590;11.030;2023-07-13T03:12:32;19.50;92.00
20398;DHT22;10358;49.590;11.030;2023-07-13T03:14:58;19.40;92.10
20398;DHT22;10358;49.590;11.030;2023-07-13T03:17:23;19.40;92.20
20398;DHT22;10358;49.590;11.030;2023-07-13T03:19:49;19.40;92.50
20398;DHT22;10358;49.590;11.030;2023-07-13T03:22:17;19.30;92.70
20398;DHT22;10358;49.590;11.030;2023-07-13T03:24:43;19.30;92.80
20398;DHT22;10358;49.590;11.030;2023-07-13T03:27:09;19.30;92.90
20398;DHT22;10358;49.590;11.030;2023-07-13T03:29:34;19.20;93.00
20398;DHT22;10358;49.590;11.030;2023-07-13T03:32:00;19.20;93.30
20398;DHT22;10358;49.590;11.030;2023-07-13T03:34:26;19.20;93.40
20398;DHT22;10358;49.590;11.030;2023-07-13T03:36:54;19.20;93.50
20398;DHT22;10358;49.590;11.030;2023-07-13T03:39:20;19.10;93.60
20398;DHT22;10358;49.590;11.030;2023-07-13T03:41:46;19.10;93.80
20398;DHT22;10358;49.590;11.030;2023-07-13T03:44:11;19.10;93.90
20398;DHT22;10358;49.590;11.030;2023-07-13T03:46:37;19.10;94.10
20398;DHT22;10358;49.590;11.030;2023-07-13T03:49:05;19.00;94.20
20398;DHT22;10358;49.590;11.030;2023-07-13T03:51:30;19.00;94.40
20398;DHT22;10358;49.590;11.030;2023-07-13T03:53:56;18.90;94.50
20398;DHT22;10358;49.590;11.030;2023-07-13T03:56:22;18.90;94.60
20398;DHT22;10358;49.590;11.030;2023-07-13T03:58:49;18.80;94.70
20398;DHT22;10358;49.590;11.030;2023-07-13T04:01:16;18.80;94.80
20398;DHT22;10358;49.590;11.030;2023-07-13T04:03:42;18.70;95.00
20398;DHT22;10358;49.590;11.030;2023-07-13T04:06:16;18.60;95.10
20398;DHT22;10358;49.590;11.030;2023-07-13T04:08:47;18.60;95.20
20398;DHT22;10358;49.590;11.030;2023-07-13T04:11:13;18.60;95.40
20398;DHT22;10358;49.590;11.030;2023-07-13T04:13:39;18.60;95.40
20398;DHT22;10358;49.590;11.030;2023-07-13T04:16:04;18.60;95.60
20398;DHT22;10358;49.590;11.030;2023-07-13T04:18:30;18.60;95.70
20398;DHT22;10358;49.590;11.030;2023-07-13T04:20:55;18.60;95.80
20398;DHT22;10358;49.590;11.030;2023-07-13T04:23:21;18.50;96.00
20398;DHT22;10358;49.590;11.030;2023-07-13T04:25:47;18.50;96.10
20398;DHT22;10358;49.590;11.030;2023-07-13T04:28:18;18.50;96.20
20398;DHT22;10358;49.590;11.030;2023-07-13T04:30:44;18.40;96.30
20398;DHT22;10358;49.590;11.030;2023-07-13T04:33:09;18.40;96.60
20398;DHT22;10358;49.590;11.030;2023-07-13T04:35:35;18.30;96.60
20398;DHT22;10358;49.590;11.030;2023-07-13T04:38:01;18.30;96.90
20398;DHT22;10358;49.590;11.030;2023-07-13T04:40:27;18.30;97.00
20398;DHT22;10358;49.590;11.030;2023-07-13T04:42:53;18.30;97.00
20398;DHT22;10358;49.590;11.030;2023-07-13T04:45:19;18.40;97.10
20398;DHT22;10358;49.590;11.030;2023-07-13T04:47:44;18.40;97.00
20398;DHT22;10358;49.590;11.030;2023-07-13T04:50:13;18.40;97.10
20398;DHT22;10358;49.590;11.030;2023-07-13T04:52:41;18.50;97.20
20398;DHT22;10358;49.590;11.030;2023-07-13T04:55:07;18.70;97.20
20398;DHT22;10358;49.590;11.030;2023-07-13T04:57:33;18.60;97.00
20398;DHT22;10358;49.590;11.030;2023-07-13T04:59:59;18.70;97.00
20398;DHT22;10358;49.590;11.030;2023-07-13T05:02:30;18.60;97.00
20398;DHT22;10358;49.590;11.030;2023-07-13T05:04:57;18.70;97.00
20398;DHT22;10358;49.590;11.030;2023-07-13T05:07:22;18.80;96.90
20398;DHT22;10358;49.590;11.030;2023-07-13T05:09:48;18.90;96.80
20398;DHT22;10358;49.590;11.030;2023-07-13T05:12:13;18.90;96.80
20398;DHT22;10358;49.590;11.030;2023-07-13T05:14:39;18.90;96.90
20398;DHT22;10358;49.590;11.030;2023-07-13T05:17:05;19.00;96.30
20398;DHT22;10358;49.590;11.030;2023-07-13T05:19:30;19.00;96.30
20398;DHT22;10358;49.590;11.030;2023-07-13T05:21:56;19.10;96.10
20398;DHT22;10358;49.590;11.030;2023-07-13T05:24:23;19.20;95.90
20398;DHT22;10358;49.590;11.030;2023-07-13T05:26:49;19.30;95.60
20398;DHT22;10358;49.590;11.030;2023-07-13T05:29:14;19.30;95.20
20398;DHT22;10358;49.590;11.030;2023-07-13T05:31:40;19.40;94.90
20398;DHT22;10358;49.590;11.030;2023-07-13T05:34:05;19.40;94.80
20398;DHT22;10358;49.590;11.030;2023-07-13T05:36:31;19.60;94.30
20398;DHT22;10358;49.590;11.030;2023-07-13T05:38:56;19.70;94.10
20398;DHT22;10358;49.590;11.030;2023-07-13T05:41:22;19.80;93.30
20398;DHT22;10358;49.590;11.030;2023-07-13T05:43:47;19.80;93.50
20398;DHT22;10358;49.590;11.030;2023-07-13T05:46:13;19.90;93.40
20398;DHT22;10358;49.590;11.030;2023-07-13T05:48:39;19.90;92.90
20398;DHT22;10358;49.590;11.030;2023-07-13T05:51:04;20.00;92.80
20398;DHT22;10358;49.590;11.030;2023-07-13T05:53:30;20.00;92.50
20398;DHT22;10358;49.590;11.030;2023-07-13T05:55:56;19.80;92.50
20398;DHT22;10358;49.590;11.030;2023-07-13T05:58:21;19.70;92.90
20398;DHT22;10358;49.590;11.030;2023-07-13T06:00:48;19.70;92.90
20398;DHT22;10358;49.590;11.030;2023-07-13T06:03:14;19.70;93.10
20398;DHT22;10358;49.590;11.030;2023-07-13T06:05:41;19.70;93.10
20398;DHT22;10358;49.590;11.030;2023-07-13T06:08:07;19.70;92.90
20398;DHT22;10358;49.590;11.030;2023-07-13T06:10:34;19.70;93.00
20398;DHT22;10358;49.590;11.030;2023-07-13T06:13:00;19.70;93.20
20398;DHT22;10358;49.590;11.030;2023-07-13T06:15:26;19.80;93.30
20398;DHT22;10358;49.590;11.030;2023-07-13T06:17:51;19.80;93.00
20398;DHT22;10358;49.590;11.030;2023-07-13T06:20:17;19.80;92.90
20398;DHT22;10358;49.590;11.030;2023-07-13T06:22:43;19.90;92.80
20398;DHT22;10358;49.590;11.030;2023-07-13T06:25:08;19.90;92.70
20398;DHT22;10358;49.590;11.030;2023-07-13T06:27:34;20.00;92.80
20398;DHT22;10358;49.590;11.030;2023-07-13T06:30:00;20.20;92.80
20398;DHT22;10358;49.590;11.030;2023-07-13T06:32:26;20.30;92.20
20398;DHT22;10358;49.590;11.030;2023-07-13T06:34:51;20.30;92.00
20398;DHT22;10358;49.590;11.030;2023-07-13T06:37:17;20.50;91.70
20398;DHT22;10358;49.590;11.030;2023-07-13T06:39:43;20.50;91.30
20398;DHT22;10358;49.590;11.030;2023-07-13T06:42:09;20.50;90.30
20398;DHT22;10358;49.590;11.030;2023-07-13T06:44:34;20.50;90.30
20398;DHT22;10358;49.590;11.030;2023-07-13T06:47:00;20.40;90.60
20398;DHT22;10358;49.590;11.030;2023-07-13T06:49:25;20.50;90.50
20398;DHT22;10358;49.590;11.030;2023-07-13T06:51:51;20.60;90.60
20398;DHT22;10358;49.590;11.030;2023-07-13T06:54:17;20.60;89.80
20398;DHT22;10358;49.590;11.030;2023-07-13T06:56:42;20.60;89.20
20398;DHT22;10358;49.590;11.030;2023-07-13T06:59:08;20.60;89.10
20398;DHT22;10358;49.590;11.030;2023-07-13T07:01:34;20.60;89.50
20398;DHT22;10358;49.590;11.030;2023-07-13T07:03:59;20.70;90.00
20398;DHT22;10358;49.590;11.030;2023-07-13T07:06:25;20.80;90.00
20398;DHT22;10358;49.590;11.030;2023-07-13T07:08:51;20.90;90.00
20398;DHT22;10358;49.590;11.030;2023-07-13T07:11:19;21.00;88.80
20398;DHT22;10358;49.590;11.030;2023-07-13T07:13:45;21.00;89.20
20398;DHT22;10358;49.590;11.030;2023-07-13T07:16:11;21.10;89.10
20398;DHT22;10358;49.590;11.030;2023-07-13T07:18:36;21.30;88.50
20398;DHT22;10358;49.590;11.030;2023-07-13T07:21:02;21.40;88.70
20398;DHT22;10358;49.590;11.030;2023-07-13T07:23:28;21.40;87.60
20398;DHT22;10358;49.590;11.030;2023-07-13T07:25:54;21.50;87.30
20398;DHT22;10358;49.590;11.030;2023-07-13T07:28:20;21.50;87.00
20398;DHT22;10358;49.590;11.030;2023-07-13T07:30:46;21.60;86.60
20398;DHT22;10358;49.590;11.030;2023-07-13T07:33:12;21.70;84.70
20398;DHT22;10358;49.590;11.030;2023-07-13T07:35:37;21.70;84.60
20398;DHT22;10358;49.590;11.030;2023-07-13T07:38:03;21.70;84.60
20398;DHT22;10358;49.590;11.030;2023-07-13T07:40:29;21.70;84.50
20398;DHT22;10358;49.590;11.030;2023-07-13T07:42:54;21.60;84.50
20398;DHT22;10358;49.590;11.030;2023-07-13T07:45:21;21.50;83.70
20398;DHT22;10358;49.590;11.030;2023-07-13T07:47:46;21.50;83.20
20398;DHT22;10358;49.590;11.030;2023-07-13T07:50:12;21.50;83.10
20398;DHT22;10358;49.590;11.030;2023-07-13T07:52:38;21.60;83.40
20398;DHT22;10358;49.590;11.030;2023-07-13T07:55:07;21.90;83.00
20398;DHT22;10358;49.590;11.030;2023-07-13T07:57:33;22.00;79.70
20398;DHT22;10358;49.590;11.030;2023-07-13T07:59:59;22.00;79.30
20398;DHT22;10358;49.590;11.030;2023-07-13T08:02:25;22.00;79.00
20398;DHT22;10358;49.590;11.030;2023-07-13T08:04:51;22.10;76.20
20398;DHT22;10358;49.590;11.030;2023-07-13T08:07:16;22.10;76.70
20398;DHT22;10358;49.590;11.030;2023-07-13T08:09:42;22.10;76.30
20398;DHT22;10358;49.590;11.030;2023-07-13T08:12:08;22.00;76.40
20398;DHT22;10358;49.590;11.030;2023-07-13T08:14:33;21.80;76.70
20398;DHT22;10358;49.590;11.030;2023-07-13T08:16:59;21.60;77.10
20398;DHT22;10358;49.590;11.030;2023-07-13T08:19:25;21.50;77.80
20398;DHT22;10358;49.590;11.030;2023-07-13T08:21:50;21.60;77.70
20398;DHT22;10358;49.590;11.030;2023-07-13T08:24:16;21.70;77.30
20398;DHT22;10358;49.590;11.030;2023-07-13T08:26:44;21.80;76.90
20398;DHT22;10358;49.590;11.030;2023-07-13T08:29:10;21.70;74.10
20398;DHT22;10358;49.590;11.030;2023-07-13T08:31:35;21.70;74.20
20398;DHT22;10358;49.590;11.030;2023-07-13T08:34:01;21.80;74.20
20398;DHT22;10358;49.590;11.030;2023-07-13T08:36:26;21.90;73.70
20398;DHT22;10358;49.590;11.030;2023-07-13T08:38:53;22.10;69.70
20398;DHT22;10358;49.590;11.030;2023-07-13T08:41:19;22.10;66.00
20398;DHT22;10358;49.590;11.030;2023-07-13T08:43:51;22.20;67.80
20398;DHT22;10358;49.590;11.030;2023-07-13T08:46:25;22.40;68.00
20398;DHT22;10358;49.590;11.030;2023-07-13T08:48:56;22.40;66.60
20398;DHT22;10358;49.590;11.030;2023-07-13T08:51:48;22.30;64.10
20398;DHT22;10358;49.590;11.030;2023-07-13T08:54:32;22.20;63.90
20398;DHT22;10358;49.590;11.030;2023-07-13T08:57:03;22.30;64.60
20398;DHT22;10358;49.590;11.030;2023-07-13T08:59:31;22.20;64.70
20398;DHT22;10358;49.590;11.030;2023-07-13T09:04:56;22.30;64.70
20398;DHT22;10358;49.590;11.030;2023-07-13T09:07:53;22.30;63.90
20398;DHT22;10358;49.590;11.030;2023-07-13T09:10:25;22.40;63.90
20398;DHT22;10358;49.590;11.030;2023-07-13T09:15:47;22.50;61.90
20398;DHT22;10358;49.590;11.030;2023-07-13T09:18:21;22.50;60.90
20398;DHT22;10358;49.590;11.030;2023-07-13T09:21:10;22.50;61.50
20398;DHT22;10358;49.590;11.030;2023-07-13T09:23:37;22.60;61.60
20398;DHT22;10358;49.590;11.030;2023-07-13T09:26:17;22.60;59.40
20398;DHT22;10358;49.590;11.030;2023-07-13T09:28:45;22.60;59.10
20398;DHT22;10358;49.590;11.030;2023-07-13T09:31:16;22.70;59.80
20398;DHT22;10358;49.590;11.030;2023-07-13T09:33:44;22.70;59.60
20398;DHT22;10358;49.590;11.030;2023-07-13T09:36:25;22.70;59.30
20398;DHT22;10358;49.590;11.030;2023-07-13T09:39:15;22.80;57.70
20398;DHT22;10358;49.590;11.030;2023-07-13T09:44:38;23.00;57.40
20398;DHT22;10358;49.590;11.030;2023-07-13T09:47:16;23.10;57.90
20398;DHT22;10358;49.590;11.030;2023-07-13T09:49:42;23.10;57.70
20398;DHT22;10358;49.590;11.030;2023-07-13T09:52:12;23.00;58.30
20398;DHT22;10358;49.590;11.030;2023-07-13T09:54:39;23.00;58.80
20398;DHT22;10358;49.590;11.030;2023-07-13T09:57:31;23.10;58.00
20398;DHT22;10358;49.590;11.030;2023-07-13T09:59:56;23.20;57.10
20398;DHT22;10358;49.590;11.030;2023-07-13T10:02:32;23.40;56.90
20398;DHT22;10358;49.590;11.030;2023-07-13T10:05:02;23.40;55.70
20398;DHT22;10358;49.590;11.030;2023-07-13T10:07:29;23.40;55.30
20398;DHT22;10358;49.590;11.030;2023-07-13T10:09:56;23.50;55.20
20398;DHT22;10358;49.590;11.030;2023-07-13T10:12:23;23.30;55.40
20398;DHT22;10358;49.590;11.030;2023-07-13T10:14:55;23.40;55.00
20398;DHT22;10358;49.590;11.030;2023-07-13T10:17:30;23.30;55.40
20398;DHT22;10358;49.590;11.030;2023-07-13T10:20:00;23.50;56.20
20398;DHT22;10358;49.590;11.030;2023-07-13T10:22:39;23.70;54.20
20398;DHT22;10358;49.590;11.030;2023-07-13T10:25:21;23.80;54.00
20398;DHT22;10358;49.590;11.030;2023-07-13T10:27:50;23.80;54.20
20398;DHT22;10358;49.590;11.030;2023-07-13T10:30:24;24.00;53.90
20398;DHT22;10358;49.590;11.030;2023-07-13T10:32:51;24.00;54.20
20398;DHT22;10358;49.590;11.030;2023-07-13T10:35:19;24.30;54.00
20398;DHT22;10358;49.590;11.030;2023-07-13T10:37:53;24.30;54.00
20398;DHT22;10358;49.590;11.030;2023-07-13T10:40:34;24.30;54.10
20398;DHT22;10358;49.590;11.030;2023-07-13T10:43:06;24.20;53.30
20398;DHT22;10358;49.590;11.030;2023-07-13T10:45:35;24.10;53.70
20398;DHT22;10358;49.590;11.030;2023-07-13T10:48:02;24.30;53.80
20398;DHT22;10358;49.590;11.030;2023-07-13T10:50:29;24.40;54.00
20398;DHT22;10358;49.590;11.030;2023-07-13T10:53:03;24.40;53.40
20398;DHT22;10358;49.590;11.030;2023-07-13T10:55:56;24.20;53.30
20398;DHT22;10358;49.590;11.030;2023-07-13T10:58:39;24.00;53.80
20398;DHT22;10358;49.590;11.030;2023-07-13T11:03:34;24.00;54.20
20398;DHT22;10358;49.590;11.030;2023-07-13T11:06:38;24.00;54.60
20398;DHT22;10358;49.590;11.030;2023-07-13T11:11:47;24.10;53.90
20398;DHT22;10358;49.590;11.030;2023-07-13T11:14:37;24.00;53.60
20398;DHT22;10358;49.590;11.030;2023-07-13T11:17:35;24.10;54.20
20398;DHT22;10358;49.590;11.030;2023-07-13T11:20:23;24.20;54.20
20398;DHT22;10358;49.590;11.030;2023-07-13T11:23:28;24.20;53.20
20398;DHT22;10358;49.590;11.030;2023-07-13T11:25:55;24.30;52.90
20398;DHT22;10358;49.590;11.030;2023-07-13T11:28:25;24.50;52.90
20398;DHT22;10358;49.590;11.030;2023-07-13T11:36:13;24.80;52.80
20398;DHT22;10358;49.590;11.030;2023-07-13T11:38:45;24.80;52.80
20398;DHT22;10358;49.590;11.030;2023-07-13T11:41:26;24.90;52.60
20398;DHT22;10358;49.590;11.030;2023-07-13T11:43:55;24.90;52.30
20398;DHT22;10358;49.590;11.030;2023-07-13T11:46:27;25.10;53.00
20398;DHT22;10358;49.590;11.030;2023-07-13T11:48:54;25.10;51.80
20398;DHT22;10358;49.590;11.030;2023-07-13T11:51:29;25.10;51.60
20398;DHT22;10358;49.590;11.030;2023-07-13T11:54:03;25.00;52.10
20398;DHT22;10358;49.590;11.030;2023-07-13T11:56:29;25.10;52.00
20398;DHT22;10358;49.590;11.030;2023-07-13T11:58:56;25.10;51.90
20398;DHT22;10358;49.590;11.030;2023-07-13T12:01:26;25.10;51.80
20398;DHT22;10358;49.590;11.030;2023-07-13T12:03:52;25.10;52.10
20398;DHT22;10358;49.590;11.030;2023-07-13T12:06:30;25.20;52.20
20398;DHT22;10358;49.590;11.030;2023-07-13T12:09:00;25.40;52.30
20398;DHT22;10358;49.590;11.030;2023-07-13T12:11:26;25.50;51.90
20398;DHT22;10358;49.590;11.030;2023-07-13T12:13:52;25.50;51.30
20398;DHT22;10358;49.590;11.030;2023-07-13T12:16:32;25.50;51.30
20398;DHT22;10358;49.590;11.030;2023-07-13T12:19:00;25.60;50.90
20398;DHT22;10358;49.590;11.030;2023-07-13T12:21:37;25.50;50.50
20398;DHT22;10358;49.590;11.030;2023-07-13T12:24:04;25.40;50.60
20398;DHT22;10358;49.590;11.030;2023-07-13T12:26:31;25.20;51.20
20398;DHT22;10358;49.590;11.030;2023-07-13T12:29:00;25.10;51.60
20398;DHT22;10358;49.590;11.030;2023-07-13T12:31:33;25.00;51.80
20398;DHT22;10358;49.590;11.030;2023-07-13T12:34:10;25.10;52.50
20398;DHT22;10358;49.590;11.030;2023-07-13T12:36:53;25.30;52.40
20398;DHT22;10358;49.590;11.030;2023-07-13T12:39:25;25.60;51.80
20398;DHT22;10358;49.590;11.030;2023-07-13T12:41:54;25.80;50.60
20398;DHT22;10358;49.590;11.030;2023-07-13T12:44:40;25.80;50.60
20398;DHT22;10358;49.590;11.030;2023-07-13T12:47:11;26.00;50.60
20398;DHT22;10358;49.590;11.030;2023-07-13T12:49:43;26.10;50.20
20398;DHT22;10358;49.590;11.030;2023-07-13T12:52:17;26.00;50.40
20398;DHT22;10358;49.590;11.030;2023-07-13T12:55:03;26.00;50.00
20398;DHT22;10358;49.590;11.030;2023-07-13T12:57:29;25.90;50.50
20398;DHT22;10358;49.590;11.030;2023-07-13T12:59:55;25.80;50.60
20398;DHT22;10358;49.590;11.030;2023-07-13T13:04:48;25.30;51.20
20398;DHT22;10358;49.590;11.030;2023-07-13T13:07:14;25.20;51.60
20398;DHT22;10358;49.590;11.030;2023-07-13T13:09:40;25.10;52.20
20398;DHT22;10358;49.590;11.030;2023-07-13T13:12:06;25.30;52.20
20398;DHT22;10358;49.590;11.030;2023-07-13T13:14:32;25.50;52.20
20398;DHT22;10358;49.590;11.030;2023-07-13T13:16:57;25.60;51.60
20398;DHT22;10358;49.590;11.030;2023-07-13T13:19:26;25.80;51.50
20398;DHT22;10358;49.590;11.030;2023-07-13T13:21:54;26.10;50.90
20398;DHT22;10358;49.590;11.030;2023-07-13T13:24:23;26.30;50.20
20398;DHT22;10358;49.590;11.030;2023-07-13T13:26:50;26.30;50.00
20398;DHT22;10358;49.590;11.030;2023-07-13T13:29:19;26.20;50.50
20398;DHT22;10358;49.590;11.030;2023-07-13T13:31:45;26.10;50.20
20398;DHT22;10358;49.590;11.030;2023-07-13T13:34:13;25.90;50.40
20398;DHT22;10358;49.590;11.030;2023-07-13T13:36:39;25.70;50.80
20398;DHT22;10358;49.590;11.030;2023-07-13T13:39:20;25.80;50.80
20398;DHT22;10358;49.590;11.030;2023-07-13T13:41:47;25.90;50.60
20398;DHT22;10358;49.590;11.030;2023-07-13T13:44:17;26.30;50.20
20398;DHT22;10358;49.590;11.030;2023-07-13T13:46:53;26.40;49.40
20398;DHT22;10358;49.590;11.030;2023-07-13T13:49:26;26.30;49.40
20398;DHT22;10358;49.590;11.030;2023-07-13T13:51:53;26.20;49.60
20398;DHT22;10358;49.590;11.030;2023-07-13T13:54:20;26.10;49.80
20398;DHT22;10358;49.590;11.030;2023-07-13T13:56:47;26.40;49.90
20398;DHT22;10358;49.590;11.030;2023-07-13T13:59:13;26.90;48.00
20398;DHT22;10358;49.590;11.030;2023-07-13T14:01:41;27.10;48.00
20398;DHT22;10358;49.590;11.030;2023-07-13T14:04:15;27.40;46.50
20398;DHT22;10358;49.590;11.030;2023-07-13T14:06:41;27.80;46.30
20398;DHT22;10358;49.590;11.030;2023-07-13T14:09:11;28.30;44.80
20398;DHT22;10358;49.590;11.030;2023-07-13T14:11:37;28.10;44.70
20398;DHT22;10358;49.590;11.030;2023-07-13T14:14:02;27.70;45.60
20398;DHT22;10358;49.590;11.030;2023-07-13T14:16:31;27.50;45.80
20398;DHT22;10358;49.590;11.030;2023-07-13T14:18:58;27.30;46.30
20398;DHT22;10358;49.590;11.030;2023-07-13T14:21:26;26.90;46.20
20398;DHT22;10358;49.590;11.030;2023-07-13T14:23:52;26.50;46.80
20398;DHT22;10358;49.590;11.030;2023-07-13T14:26:24;26.60;47.20
20398;DHT22;10358;49.590;11.030;2023-07-13T14:28:56;27.10;46.70
20398;DHT22;10358;49.590;11.030;2023-07-13T14:31:24;27.20;45.60
20398;DHT22;10358;49.590;11.030;2023-07-13T14:33:50;26.90;46.90
20398;DHT22;10358;49.590;11.030;2023-07-13T14:36:29;27.10;47.00
20398;DHT22;10358;49.590;11.030;2023-07-13T14:38:56;27.10;47.00
20398;DHT22;10358;49.590;11.030;2023-07-13T14:41:22;27.20;46.70
20398;DHT22;10358;49.590;11.030;2023-07-13T14:43:48;26.90;46.60
20398;DHT22;10358;49.590;11.030;2023-07-13T14:46:34;26.70;46.70
20398;DHT22;10358;49.590;11.030;2023-07-13T14:51:49;28.20;45.30
20398;DHT22;10358;49.590;11.030;2023-07-13T14:54:15;29.20;43.80
20398;DHT22;10358;49.590;11.030;2023-07-13T14:56:40;28.90;43.40
20398;DHT22;10358;49.590;11.030;2023-07-13T14:59:06;28.30;44.10
20398;DHT22;10358;49.590;11.030;2023-07-13T15:01:34;27.70;45.00
20398;DHT22;10358;49.590;11.030;2023-07-13T15:04:00;27.30;45.80
20398;DHT22;10358;49.590;11.030;2023-07-13T15:06:27;27.00;46.20
20398;DHT22;10358;49.590;11.030;2023-07-13T15:08:53;26.80;46.40
20398;DHT22;10358;49.590;11.030;2023-07-13T15:11:19;26.70;46.20
20398;DHT22;10358;49.590;11.030;2023-07-13T15:13:44;26.70;46.00
20398;DHT22;10358;49.590;11.030;2023-07-13T15:16:21;27.50;45.70
20398;DHT22;10358;49.590;11.030;2023-07-13T15:18:47;28.20;44.40
20398;DHT22;10358;49.590;11.030;2023-07-13T15:21:23;28.40;44.60
20398;DHT22;10358;49.590;11.030;2023-07-13T15:23:50;28.70;43.90
20398;DHT22;10358;49.590;11.030;2023-07-13T15:26:18;28.90;43.50
20398;DHT22;10358;49.590;11.030;2023-07-13T15:28:45;29.10;43.30
20398;DHT22;10358;49.590;11.030;2023-07-13T15:31:23;29.10;43.10
20398;DHT22;10358;49.590;11.030;2023-07-13T15:33:51;28.30;44.50
20398;DHT22;10358;49.590;11.030;2023-07-13T15:36:18;27.60;45.60
20398;DHT22;10358;49.590;11.030;2023-07-13T15:38:45;27.20;46.20
20398;DHT22;10358;49.590;11.030;2023-07-13T15:41:20;26.80;46.70
20398;DHT22;10358;49.590;11.030;2023-07-13T15:43:49;27.50;46.20
20398;DHT22;10358;49.590;11.030;2023-07-13T15:46:16;28.00;45.20
20398;DHT22;10358;49.590;11.030;2023-07-13T15:48:41;28.80;43.90
20398;DHT22;10358;49.590;11.030;2023-07-13T15:51:22;29.50;43.00